sensor_id;sensor_type;location;lat;lon;timestamp;P1;durP1;ratioP1;P2;durP2;ratioP2
17648;SDS011;8943;51.110;-4.158;2022-12-10T00:10:58;17.10;;;9.70;;
17648;SDS011;8943;51.110;-4.158;2022-12-10T00:13:27;19.03;;;10.03;;
17648;SDS011;8943;51.110;-4.158;2022-12-10T00:18:32;20.90;;;11.20;;
17648;SDS011;8943;51.110;-4.158;2022-12-10T00:21:04;22.20;;;12.10;;
17648;SDS011;8943;51.110;-4.158;2022-12-10T00:23:35;13.17;;;7.77;;
17648;SDS011;8943;51.110;-4.158;2022-12-10T00:26:06;12.73;;;7.40;;
17648;SDS011;8943;51.110;-4.158;2022-12-10T00:28:37;12.57;;;7.97;;
17648;SDS011;8943;51.110;-4.158;2022-12-10T00:31:08;12.93;;;8.77;;
17648;SDS011;8943;51.110;-4.158;2022-12-10T00:33:40;13.17;;;8.07;;
17648;SDS011;8943;51.110;-4.158;2022-12-10T00:36:09;14.07;;;8.43;;
17648;SDS011;8943;51.110;-4.158;2022-12-10T00:38:43;13.07;;;8.70;;
17648;SDS011;8943;51.110;-4.158;2022-12-10T00:41:15;13.70;;;8.10;;
17648;SDS011;8943;51.110;-4.158;2022-12-10T00:43:45;12.87;;;8.53;;
17648;SDS011;8943;51.110;-4.158;2022-12-10T00:46:15;13.27;;;8.20;;
17648;SDS011;8943;51.110;-4.158;2022-12-10T00:48:45;13.63;;;9.00;;
17648;SDS011;8943;51.110;-4.158;2022-12-10T00:51:21;11.93;;;8.10;;
17648;SDS011;8943;51.110;-4.158;2022-12-10T00:53:53;25.73;;;13.77;;
17648;SDS011;8943;51.110;-4.158;2022-12-10T00:56:26;23.57;;;11.70;;
17648;SDS011;8943;51.110;-4.158;2022-12-10T00:58:57;41.43;;;12.37;;
17648;SDS011;8943;51.110;-4.158;2022-12-10T01:01:27;18.40;;;9.87;;
17648;SDS011;8943;51.110;-4.158;2022-12-10T01:03:58;14.67;;;9.27;;
17648;SDS011;8943;51.110;-4.158;2022-12-10T01:06:30;82.73;;;13.63;;
17648;SDS011;8943;51.110;-4.158;2022-12-10T01:09:02;20.07;;;12.77;;
17648;SDS011;8943;51.110;-4.158;2022-12-10T01:11:34;13.33;;;9.87;;
17648;SDS011;8943;51.110;-4.158;2022-12-10T01:14:04;13.07;;;8.87;;
17648;SDS011;8943;51.110;-4.158;2022-12-10T01:16:35;33.43;;;9.03;;
17648;SDS011;8943;51.110;-4.158;2022-12-10T01:19:04;13.53;;;8.07;;
17648;SDS011;8943;51.110;-4.158;2022-12-10T01:21:37;10.50;;;7.10;;
17648;SDS011;8943;51.110;-4.158;2022-12-10T01:24:27;10.73;;;7.33;;
17648;SDS011;8943;51.110;-4.158;2022-12-10T01:27:00;11.07;;;6.67;;
17648;SDS011;8943;51.110;-4.158;2022-12-10T01:29:33;10.60;;;7.63;;
17648;SDS011;8943;51.110;-4.158;2022-12-10T01:32:02;13.90;;;7.63;;
17648;SDS011;8943;51.110;-4.158;2022-12-10T01:34:36;12.60;;;7.80;;
17648;SDS011;8943;51.110;-4.158;2022-12-10T01:37:04;16.30;;;7.53;;
17648;SDS011;8943;51.110;-4.158;2022-12-10T01:39:33;13.37;;;7.37;;
17648;SDS011;8943;51.110;-4.158;2022-12-10T01:42:29;9.70;;;6.07;;
17648;SDS011;8943;51.110;-4.158;2022-12-10T01:45:00;10.63;;;6.70;;
17648;SDS011;8943;51.110;-4.158;2022-12-10T01:47:36;8.83;;;7.10;;
17648;SDS011;8943;51.110;-4.158;2022-12-10T01:53:00;10.70;;;7.73;;
17648;SDS011;8943;51.110;-4.158;2022-12-10T01:55:44;11.47;;;8.30;;
17648;SDS011;8943;51.110;-4.158;2022-12-10T01:58:19;140.37;;;12.00;;
17648;SDS011;8943;51.110;-4.158;2022-12-10T02:01:00;11.73;;;8.17;;
17648;SDS011;8943;51.110;-4.158;2022-12-10T02:03:36;12.60;;;7.47;;
17648;SDS011;8943;51.110;-4.158;2022-12-10T02:06:23;13.93;;;8.33;;
17648;SDS011;8943;51.110;-4.158;2022-12-10T02:09:04;9.40;;;7.50;;
17648;SDS011;8943;51.110;-4.158;2022-12-10T02:11:43;9.93;;;6.77;;
17648;SDS011;8943;51.110;-4.158;2022-12-10T02:14:27;12.93;;;7.60;;
17648;SDS011;8943;51.110;-4.158;2022-12-10T02:17:34;12.73;;;6.90;;
17648;SDS011;8943;51.110;-4.158;2022-12-10T02:20:07;10.53;;;7.30;;
17648;SDS011;8943;51.110;-4.158;2022-12-10T02:22:42;9.30;;;7.17;;
17648;SDS011;8943;51.110;-4.158;2022-12-10T02:25:14;11.07;;;6.53;;
17648;SDS011;8943;51.110;-4.158;2022-12-10T02:27:49;9.03;;;6.73;;
17648;SDS011;8943;51.110;-4.158;2022-12-10T02:30:44;9.83;;;6.83;;
17648;SDS011;8943;51.110;-4.158;2022-12-10T02:33:19;9.80;;;6.43;;
17648;SDS011;8943;51.110;-4.158;2022-12-10T02:35:57;23.97;;;7.30;;
17648;SDS011;8943;51.110;-4.158;2022-12-10T02:42:13;9.43;;;6.80;;
17648;SDS011;8943;51.110;-4.158;2022-12-10T02:45:02;9.27;;;6.60;;
17648;SDS011;8943;51.110;-4.158;2022-12-10T02:53:14;14.80;;;6.57;;
17648;SDS011;8943;51.110;-4.158;2022-12-10T02:55:56;10.00;;;5.97;;
17648;SDS011;8943;51.110;-4.158;2022-12-10T02:58:59;9.93;;;6.33;;
17648;SDS011;8943;51.110;-4.158;2022-12-10T03:01:40;6.67;;;4.60;;
17648;SDS011;8943;51.110;-4.158;2022-12-10T03:04:16;7.80;;;5.73;;
17648;SDS011;8943;51.110;-4.158;2022-12-10T03:06:51;7.80;;;5.53;;
17648;SDS011;8943;51.110;-4.158;2022-12-10T03:09:26;6.40;;;4.83;;
17648;SDS011;8943;51.110;-4.158;2022-12-10T03:12:01;9.23;;;6.20;;
17648;SDS011;8943;51.110;-4.158;2022-12-10T03:14:42;7.63;;;4.57;;
17648;SDS011;8943;51.110;-4.158;2022-12-10T03:17:13;7.20;;;5.37;;
17648;SDS011;8943;51.110;-4.158;2022-12-10T03:19:44;6.83;;;5.30;;
17648;SDS011;8943;51.110;-4.158;2022-12-10T03:22:19;7.37;;;5.33;;
17648;SDS011;8943;51.110;-4.158;2022-12-10T03:24:53;7.50;;;4.87;;
17648;SDS011;8943;51.110;-4.158;2022-12-10T03:27:29;117.00;;;10.73;;
17648;SDS011;8943;51.110;-4.158;2022-12-10T03:30:02;7.50;;;5.53;;
17648;SDS011;8943;51.110;-4.158;2022-12-10T03:32:32;7.27;;;5.23;;
17648;SDS011;8943;51.110;-4.158;2022-12-10T03:35:04;5.73;;;4.37;;
17648;SDS011;8943;51.110;-4.158;2022-12-10T03:37:34;8.10;;;3.90;;
17648;SDS011;8943;51.110;-4.158;2022-12-10T03:40:06;7.17;;;4.93;;
17648;SDS011;8943;51.110;-4.158;2022-12-10T03:42:39;8.07;;;4.50;;
17648;SDS011;8943;51.110;-4.158;2022-12-10T03:45:08;5.17;;;4.10;;
17648;SDS011;8943;51.110;-4.158;2022-12-10T03:47:40;6.97;;;4.33;;
17648;SDS011;8943;51.110;-4.158;2022-12-10T03:50:12;5.17;;;3.87;;
17648;SDS011;8943;51.110;-4.158;2022-12-10T03:52:45;6.17;;;3.40;;
17648;SDS011;8943;51.110;-4.158;2022-12-10T03:55:20;5.33;;;3.33;;
17648;SDS011;8943;51.110;-4.158;2022-12-10T03:58:03;6.27;;;4.03;;
17648;SDS011;8943;51.110;-4.158;2022-12-10T04:00:33;5.33;;;3.40;;
17648;SDS011;8943;51.110;-4.158;2022-12-10T04:03:04;4.73;;;3.40;;
17648;SDS011;8943;51.110;-4.158;2022-12-10T04:05:36;5.53;;;3.70;;
17648;SDS011;8943;51.110;-4.158;2022-12-10T04:08:07;8.37;;;3.93;;
17648;SDS011;8943;51.110;-4.158;2022-12-10T04:11:00;4.50;;;3.70;;
17648;SDS011;8943;51.110;-4.158;2022-12-10T04:13:43;5.30;;;3.47;;
17648;SDS011;8943;51.110;-4.158;2022-12-10T04:16:35;5.90;;;3.63;;
17648;SDS011;8943;51.110;-4.158;2022-12-10T04:19:06;8.80;;;4.10;;
17648;SDS011;8943;51.110;-4.158;2022-12-10T04:41:48;4.90;;;3.10;;
17648;SDS011;8943;51.110;-4.158;2022-12-10T04:44:20;4.03;;;3.13;;
17648;SDS011;8943;51.110;-4.158;2022-12-10T04:47:12;3.60;;;2.67;;
17648;SDS011;8943;51.110;-4.158;2022-12-10T04:49:47;20.80;;;4.20;;
17648;SDS011;8943;51.110;-4.158;2022-12-10T04:52:16;3.67;;;2.80;;
17648;SDS011;8943;51.110;-4.158;2022-12-10T04:54:45;2.80;;;2.20;;
17648;SDS011;8943;51.110;-4.158;2022-12-10T04:57:15;2.67;;;1.93;;
17648;SDS011;8943;51.110;-4.158;2022-12-10T04:59:43;48.50;;;5.23;;
17648;SDS011;8943;51.110;-4.158;2022-12-10T05:02:12;3.20;;;2.00;;
17648;SDS011;8943;51.110;-4.158;2022-12-10T05:04:42;3.27;;;2.60;;
17648;SDS011;8943;51.110;-4.158;2022-12-10T05:07:14;4.80;;;3.17;;
17648;SDS011;8943;51.110;-4.158;2022-12-10T05:09:43;3.90;;;2.03;;
17648;SDS011;8943;51.110;-4.158;2022-12-10T05:12:15;3.60;;;2.57;;
17648;SDS011;8943;51.110;-4.158;2022-12-10T05:14:44;4.10;;;2.60;;
17648;SDS011;8943;51.110;-4.158;2022-12-10T05:17:12;6.97;;;2.50;;
17648;SDS011;8943;51.110;-4.158;2022-12-10T05:19:41;14.83;;;2.80;;
17648;SDS011;8943;51.110;-4.158;2022-12-10T05:22:15;3.83;;;1.90;;
17648;SDS011;8943;51.110;-4.158;2022-12-10T05:25:04;3.77;;;1.83;;
17648;SDS011;8943;51.110;-4.158;2022-12-10T05:44:41;2.97;;;2.30;;
17648;SDS011;8943;51.110;-4.158;2022-12-10T05:47:47;5.03;;;2.33;;
17648;SDS011;8943;51.110;-4.158;2022-12-10T05:50:19;2.67;;;2.10;;
17648;SDS011;8943;51.110;-4.158;2022-12-10T05:52:49;2.40;;;1.90;;
17648;SDS011;8943;51.110;-4.158;2022-12-10T05:55:18;4.73;;;2.60;;
17648;SDS011;8943;51.110;-4.158;2022-12-10T05:57:49;2.33;;;1.70;;
17648;SDS011;8943;51.110;-4.158;2022-12-10T06:00:21;2.80;;;1.70;;
17648;SDS011;8943;51.110;-4.158;2022-12-10T06:02:49;4.00;;;1.43;;
17648;SDS011;8943;51.110;-4.158;2022-12-10T06:05:18;2.00;;;1.30;;
17648;SDS011;8943;51.110;-4.158;2022-12-10T06:07:46;1.33;;;1.10;;
17648;SDS011;8943;51.110;-4.158;2022-12-10T06:10:14;2.50;;;1.40;;
17648;SDS011;8943;51.110;-4.158;2022-12-10T06:12:43;2.53;;;1.20;;
17648;SDS011;8943;51.110;-4.158;2022-12-10T06:15:12;1.50;;;1.20;;
17648;SDS011;8943;51.110;-4.158;2022-12-10T06:17:41;3.37;;;1.17;;
17648;SDS011;8943;51.110;-4.158;2022-12-10T06:20:09;1.97;;;1.30;;
17648;SDS011;8943;51.110;-4.158;2022-12-10T06:22:38;2.70;;;1.30;;
17648;SDS011;8943;51.110;-4.158;2022-12-10T06:25:07;1.40;;;1.10;;
17648;SDS011;8943;51.110;-4.158;2022-12-10T06:27:38;2.90;;;1.83;;
17648;SDS011;8943;51.110;-4.158;2022-12-10T06:30:07;3.97;;;1.67;;
17648;SDS011;8943;51.110;-4.158;2022-12-10T06:32:38;2.07;;;1.47;;
17648;SDS011;8943;51.110;-4.158;2022-12-10T06:35:09;1.97;;;1.40;;
17648;SDS011;8943;51.110;-4.158;2022-12-10T06:37:38;2.97;;;1.60;;
17648;SDS011;8943;51.110;-4.158;2022-12-10T06:40:06;2.17;;;1.27;;
17648;SDS011;8943;51.110;-4.158;2022-12-10T06:42:35;7.57;;;1.50;;
17648;SDS011;8943;51.110;-4.158;2022-12-10T06:45:04;22.20;;;3.47;;
17648;SDS011;8943;51.110;-4.158;2022-12-10T06:47:33;70.63;;;4.57;;
17648;SDS011;8943;51.110;-4.158;2022-12-10T06:50:09;2.77;;;1.67;;
17648;SDS011;8943;51.110;-4.158;2022-12-10T06:52:37;87.43;;;6.13;;
17648;SDS011;8943;51.110;-4.158;2022-12-10T06:55:06;2.17;;;1.47;;
17648;SDS011;8943;51.110;-4.158;2022-12-10T06:57:34;1.87;;;1.47;;
17648;SDS011;8943;51.110;-4.158;2022-12-10T07:00:05;6.37;;;1.70;;
17648;SDS011;8943;51.110;-4.158;2022-12-10T07:02:35;3.03;;;1.37;;
17648;SDS011;8943;51.110;-4.158;2022-12-10T07:05:04;3.47;;;1.77;;
17648;SDS011;8943;51.110;-4.158;2022-12-10T07:07:34;66.93;;;5.33;;
17648;SDS011;8943;51.110;-4.158;2022-12-10T07:10:03;84.07;;;7.47;;
17648;SDS011;8943;51.110;-4.158;2022-12-10T07:12:33;16.23;;;3.43;;
17648;SDS011;8943;51.110;-4.158;2022-12-10T07:15:01;3.90;;;2.47;;
17648;SDS011;8943;51.110;-4.158;2022-12-10T07:17:29;3.97;;;2.37;;
17648;SDS011;8943;51.110;-4.158;2022-12-10T07:19:57;2.37;;;1.80;;
17648;SDS011;8943;51.110;-4.158;2022-12-10T07:22:25;183.97;;;9.70;;
17648;SDS011;8943;51.110;-4.158;2022-12-10T07:24:55;33.77;;;4.67;;
17648;SDS011;8943;51.110;-4.158;2022-12-10T07:27:23;6.50;;;3.93;;
17648;SDS011;8943;51.110;-4.158;2022-12-10T07:29:53;4.33;;;3.27;;
17648;SDS011;8943;51.110;-4.158;2022-12-10T07:32:22;5.53;;;3.13;;
17648;SDS011;8943;51.110;-4.158;2022-12-10T07:34:50;2.70;;;2.00;;
17648;SDS011;8943;51.110;-4.158;2022-12-10T07:37:18;2.10;;;1.70;;
17648;SDS011;8943;51.110;-4.158;2022-12-10T07:39:46;2.83;;;1.77;;
17648;SDS011;8943;51.110;-4.158;2022-12-10T07:42:16;258.60;;;12.17;;
17648;SDS011;8943;51.110;-4.158;2022-12-10T07:44:52;4.53;;;2.20;;
17648;SDS011;8943;51.110;-4.158;2022-12-10T07:47:54;25.27;;;3.00;;
17648;SDS011;8943;51.110;-4.158;2022-12-10T07:51:09;32.17;;;4.77;;
17648;SDS011;8943;51.110;-4.158;2022-12-10T07:53:37;183.27;;;11.13;;
17648;SDS011;8943;51.110;-4.158;2022-12-10T07:56:06;6.97;;;1.60;;
17648;SDS011;8943;51.110;-4.158;2022-12-10T07:58:36;88.37;;;5.47;;
17648;SDS011;8943;51.110;-4.158;2022-12-10T08:01:08;3.23;;;1.57;;
17648;SDS011;8943;51.110;-4.158;2022-12-10T08:03:38;2.50;;;1.70;;
17648;SDS011;8943;51.110;-4.158;2022-12-10T08:06:10;4.00;;;2.30;;
17648;SDS011;8943;51.110;-4.158;2022-12-10T08:08:40;5.33;;;2.50;;
17648;SDS011;8943;51.110;-4.158;2022-12-10T08:11:09;2.20;;;1.70;;
17648;SDS011;8943;51.110;-4.158;2022-12-10T08:13:41;2.47;;;1.20;;
17648;SDS011;8943;51.110;-4.158;2022-12-10T08:16:10;1.47;;;1.10;;
17648;SDS011;8943;51.110;-4.158;2022-12-10T08:18:43;1.57;;;1.10;;
17648;SDS011;8943;51.110;-4.158;2022-12-10T08:21:14;1.20;;;0.93;;
17648;SDS011;8943;51.110;-4.158;2022-12-10T08:23:44;3.70;;;1.43;;
17648;SDS011;8943;51.110;-4.158;2022-12-10T08:26:13;2.03;;;1.53;;
17648;SDS011;8943;51.110;-4.158;2022-12-10T08:28:45;2.07;;;1.47;;
17648;SDS011;8943;51.110;-4.158;2022-12-10T08:31:18;2.10;;;1.50;;
17648;SDS011;8943;51.110;-4.158;2022-12-10T08:33:48;2.00;;;1.60;;
17648;SDS011;8943;51.110;-4.158;2022-12-10T08:36:16;5.40;;;2.50;;
17648;SDS011;8943;51.110;-4.158;2022-12-10T08:38:46;3.70;;;1.60;;
17648;SDS011;8943;51.110;-4.158;2022-12-10T08:41:15;7.93;;;1.70;;
17648;SDS011;8943;51.110;-4.158;2022-12-10T08:43:47;1.90;;;1.70;;
17648;SDS011;8943;51.110;-4.158;2022-12-10T08:46:17;52.30;;;4.67;;
17648;SDS011;8943;51.110;-4.158;2022-12-10T08:48:45;2.60;;;1.83;;
17648;SDS011;8943;51.110;-4.158;2022-12-10T08:51:14;2.50;;;1.90;;
17648;SDS011;8943;51.110;-4.158;2022-12-10T08:53:44;3.23;;;2.40;;
17648;SDS011;8943;51.110;-4.158;2022-12-10T08:56:12;2.00;;;1.70;;
17648;SDS011;8943;51.110;-4.158;2022-12-10T08:58:41;3.17;;;2.43;;
17648;SDS011;8943;51.110;-4.158;2022-12-10T09:01:12;2.23;;;2.00;;
17648;SDS011;8943;51.110;-4.158;2022-12-10T09:03:41;2.80;;;2.27;;
17648;SDS011;8943;51.110;-4.158;2022-12-10T09:06:11;2.83;;;2.37;;
17648;SDS011;8943;51.110;-4.158;2022-12-10T09:08:41;4.53;;;2.27;;
17648;SDS011;8943;51.110;-4.158;2022-12-10T09:11:10;22.77;;;4.00;;
17648;SDS011;8943;51.110;-4.158;2022-12-10T09:13:40;2.40;;;1.90;;
17648;SDS011;8943;51.110;-4.158;2022-12-10T09:16:11;5.27;;;2.10;;
17648;SDS011;8943;51.110;-4.158;2022-12-10T09:18:43;6.40;;;2.10;;
17648;SDS011;8943;51.110;-4.158;2022-12-10T09:21:12;27.43;;;3.57;;
17648;SDS011;8943;51.110;-4.158;2022-12-10T09:23:42;1.87;;;1.10;;
17648;SDS011;8943;51.110;-4.158;2022-12-10T09:26:12;6.90;;;2.10;;
17648;SDS011;8943;51.110;-4.158;2022-12-10T09:28:43;2.57;;;1.77;;
17648;SDS011;8943;51.110;-4.158;2022-12-10T09:31:14;275.03;;;17.50;;
17648;SDS011;8943;51.110;-4.158;2022-12-10T09:33:46;2.00;;;1.67;;
17648;SDS011;8943;51.110;-4.158;2022-12-10T09:36:17;60.30;;;5.10;;
17648;SDS011;8943;51.110;-4.158;2022-12-10T09:38:47;4.63;;;2.10;;
17648;SDS011;8943;51.110;-4.158;2022-12-10T09:41:40;3.47;;;2.13;;
17648;SDS011;8943;51.110;-4.158;2022-12-10T09:48:04;1.83;;;1.60;;
17648;SDS011;8943;51.110;-4.158;2022-12-10T09:50:44;4.50;;;2.30;;
17648;SDS011;8943;51.110;-4.158;2022-12-10T09:53:20;3.97;;;2.50;;
17648;SDS011;8943;51.110;-4.158;2022-12-10T09:56:18;5.10;;;2.60;;
17648;SDS011;8943;51.110;-4.158;2022-12-10T09:58:55;4.23;;;2.30;;
17648;SDS011;8943;51.110;-4.158;2022-12-10T10:01:28;37.43;;;3.60;;
17648;SDS011;8943;51.110;-4.158;2022-12-10T10:04:03;17.43;;;4.97;;
17648;SDS011;8943;51.110;-4.158;2022-12-10T10:06:34;7.97;;;3.93;;
17648;SDS011;8943;51.110;-4.158;2022-12-10T10:09:05;9.37;;;4.57;;
17648;SDS011;8943;51.110;-4.158;2022-12-10T10:11:52;7.03;;;5.23;;
17648;SDS011;8943;51.110;-4.158;2022-12-10T10:14:22;9.80;;;5.97;;
17648;SDS011;8943;51.110;-4.158;2022-12-10T10:16:55;6.77;;;4.90;;
17648;SDS011;8943;51.110;-4.158;2022-12-10T10:19:31;3.80;;;2.83;;
17648;SDS011;8943;51.110;-4.158;2022-12-10T10:22:08;76.03;;;8.00;;
17648;SDS011;8943;51.110;-4.158;2022-12-10T10:24:39;3.67;;;3.23;;
17648;SDS011;8943;51.110;-4.158;2022-12-10T10:27:13;4.03;;;3.33;;
17648;SDS011;8943;51.110;-4.158;2022-12-10T10:29:43;7.77;;;3.50;;
17648;SDS011;8943;51.110;-4.158;2022-12-10T10:32:23;13.63;;;4.40;;
17648;SDS011;8943;51.110;-4.158;2022-12-10T10:34:57;10.90;;;8.33;;
17648;SDS011;8943;51.110;-4.158;2022-12-10T10:37:28;9.90;;;7.07;;
17648;SDS011;8943;51.110;-4.158;2022-12-10T10:39:59;127.53;;;11.93;;
17648;SDS011;8943;51.110;-4.158;2022-12-10T10:42:34;20.43;;;1.57;;
17648;SDS011;8943;51.110;-4.158;2022-12-10T10:48:06;7.27;;;2.53;;
17648;SDS011;8943;51.110;-4.158;2022-12-10T10:50:44;40.47;;;8.37;;
17648;SDS011;8943;51.110;-4.158;2022-12-10T11:27:56;5.13;;;4.07;;
17648;SDS011;8943;51.110;-4.158;2022-12-10T11:30:45;4.93;;;3.47;;
17648;SDS011;8943;51.110;-4.158;2022-12-10T12:07:09;1.53;;;1.43;;
17648;SDS011;8943;51.110;-4.158;2022-12-10T12:13:24;1.83;;;1.10;;
17648;SDS011;8943;51.110;-4.158;2022-12-10T12:16:13;2.23;;;1.17;;
17648;SDS011;8943;51.110;-4.158;2022-12-10T12:19:13;4.30;;;2.00;;
17648;SDS011;8943;51.110;-4.158;2022-12-10T12:21:47;1.90;;;1.70;;
17648;SDS011;8943;51.110;-4.158;2022-12-10T12:24:28;1.43;;;1.03;;
17648;SDS011;8943;51.110;-4.158;2022-12-10T12:27:04;1.90;;;1.47;;
17648;SDS011;8943;51.110;-4.158;2022-12-10T12:30:12;3.43;;;2.90;;
17648;SDS011;8943;51.110;-4.158;2022-12-10T12:32:47;5.97;;;3.40;;
17648;SDS011;8943;51.110;-4.158;2022-12-10T12:35:27;56.93;;;8.90;;
17648;SDS011;8943;51.110;-4.158;2022-12-10T12:38:06;4.10;;;3.00;;
17648;SDS011;8943;51.110;-4.158;2022-12-10T12:40:59;6.97;;;6.27;;
17648;SDS011;8943;51.110;-4.158;2022-12-10T12:43:39;5.60;;;4.50;;
17648;SDS011;8943;51.110;-4.158;2022-12-10T12:46:19;17.80;;;5.33;;
17648;SDS011;8943;51.110;-4.158;2022-12-10T12:51:59;208.60;;;18.47;;
17648;SDS011;8943;51.110;-4.158;2022-12-10T12:54:44;7.47;;;5.10;;
17648;SDS011;8943;51.110;-4.158;2022-12-10T12:57:38;5.03;;;3.80;;
17648;SDS011;8943;51.110;-4.158;2022-12-10T13:00:14;6.50;;;3.83;;
17648;SDS011;8943;51.110;-4.158;2022-12-10T13:07:31;3.80;;;2.17;;
17648;SDS011;8943;51.110;-4.158;2022-12-10T13:10:43;232.40;;;15.43;;
17648;SDS011;8943;51.110;-4.158;2022-12-10T13:19:36;132.53;;;7.90;;
17648;SDS011;8943;51.110;-4.158;2022-12-10T13:22:06;5.13;;;4.17;;
17648;SDS011;8943;51.110;-4.158;2022-12-10T13:28:20;471.50;;;30.20;;
17648;SDS011;8943;51.110;-4.158;2022-12-10T13:31:18;5.80;;;4.20;;
17648;SDS011;8943;51.110;-4.158;2022-12-10T13:34:21;4.40;;;3.50;;
17648;SDS011;8943;51.110;-4.158;2022-12-10T13:37:04;55.83;;;8.17;;
17648;SDS011;8943;51.110;-4.158;2022-12-10T13:39:46;6.27;;;4.50;;
17648;SDS011;8943;51.110;-4.158;2022-12-10T13:42:27;7.20;;;5.07;;
17648;SDS011;8943;51.110;-4.158;2022-12-10T13:53:48;12.83;;;4.73;;
17648;SDS011;8943;51.110;-4.158;2022-12-10T14:05:23;4.43;;;3.23;;
17648;SDS011;8943;51.110;-4.158;2022-12-10T16:47:20;6.10;;;4.20;;
17648;SDS011;8943;51.110;-4.158;2022-12-10T16:52:48;5.67;;;3.50;;
17648;SDS011;8943;51.110;-4.158;2022-12-10T16:59:01;12.60;;;9.53;;
17648;SDS011;8943;51.110;-4.158;2022-12-10T17:14:26;11.43;;;8.43;;
17648;SDS011;8943;51.110;-4.158;2022-12-10T17:25:09;3.73;;;2.40;;
17648;SDS011;8943;51.110;-4.158;2022-12-10T17:42:20;6.07;;;3.23;;
17648;SDS011;8943;51.110;-4.158;2022-12-10T17:44:49;53.13;;;5.53;;
17648;SDS011;8943;51.110;-4.158;2022-12-10T17:49:53;4.10;;;2.60;;
17648;SDS011;8943;51.110;-4.158;2022-12-10T17:52:24;6.10;;;3.93;;
17648;SDS011;8943;51.110;-4.158;2022-12-10T17:54:52;12.40;;;7.53;;
17648;SDS011;8943;51.110;-4.158;2022-12-10T19:41:30;21.70;;;10.73;;
17648;SDS011;8943;51.110;-4.158;2022-12-10T19:44:07;19.07;;;11.57;;
17648;SDS011;8943;51.110;-4.158;2022-12-10T19:52:03;23.13;;;13.80;;
17648;SDS011;8943;51.110;-4.158;2022-12-10T19:54:34;26.40;;;15.13;;
17648;SDS011;8943;51.110;-4.158;2022-12-10T19:57:15;21.17;;;13.07;;
17648;SDS011;8943;51.110;-4.158;2022-12-10T19:59:47;25.80;;;14.00;;
17648;SDS011;8943;51.110;-4.158;2022-12-10T20:02:16;21.77;;;12.70;;
17648;SDS011;8943;51.110;-4.158;2022-12-10T20:04:48;24.67;;;15.63;;
17648;SDS011;8943;51.110;-4.158;2022-12-10T20:07:25;20.60;;;13.40;;
17648;SDS011;8943;51.110;-4.158;2022-12-10T20:09:54;27.33;;;16.40;;
17648;SDS011;8943;51.110;-4.158;2022-12-10T20:15:46;20.87;;;11.80;;
17648;SDS011;8943;51.110;-4.158;2022-12-10T20:18:31;17.07;;;10.77;;
17648;SDS011;8943;51.110;-4.158;2022-12-10T20:21:04;86.70;;;18.47;;
17648;SDS011;8943;51.110;-4.158;2022-12-10T20:23:36;161.73;;;25.53;;
17648;SDS011;8943;51.110;-4.158;2022-12-10T20:26:17;29.23;;;18.73;;
17648;SDS011;8943;51.110;-4.158;2022-12-10T20:29:19;33.90;;;17.27;;
17648;SDS011;8943;51.110;-4.158;2022-12-10T20:31:51;104.27;;;20.00;;
17648;SDS011;8943;51.110;-4.158;2022-12-10T20:34:37;32.10;;;17.43;;
17648;SDS011;8943;51.110;-4.158;2022-12-10T20:37:08;42.10;;;24.53;;
17648;SDS011;8943;51.110;-4.158;2022-12-10T20:39:39;49.17;;;23.97;;
17648;SDS011;8943;51.110;-4.158;2022-12-10T20:42:07;44.20;;;22.90;;
17648;SDS011;8943;51.110;-4.158;2022-12-10T20:44:51;26.93;;;16.70;;
17648;SDS011;8943;51.110;-4.158;2022-12-10T20:47:20;10.83;;;4.37;;
17648;SDS011;8943;51.110;-4.158;2022-12-10T20:49:48;11.60;;;5.07;;
17648;SDS011;8943;51.110;-4.158;2022-12-10T20:52:16;9.53;;;5.73;;
17648;SDS011;8943;51.110;-4.158;2022-12-10T20:54:45;9.23;;;5.73;;
17648;SDS011;8943;51.110;-4.158;2022-12-10T20:57:14;26.43;;;16.70;;
17648;SDS011;8943;51.110;-4.158;2022-12-10T20:59:58;18.23;;;10.40;;
17648;SDS011;8943;51.110;-4.158;2022-12-10T22:15:44;11.70;;;6.87;;
17648;SDS011;8943;51.110;-4.158;2022-12-10T22:18:21;10.57;;;6.03;;
17648;SDS011;8943;51.110;-4.158;2022-12-10T22:21:19;18.20;;;11.73;;
17648;SDS011;8943;51.110;-4.158;2022-12-10T22:24:28;22.37;;;13.07;;
17648;SDS011;8943;51.110;-4.158;2022-12-10T22:27:16;13.37;;;7.60;;
17648;SDS011;8943;51.110;-4.158;2022-12-10T22:29:49;15.73;;;8.73;;
17648;SDS011;8943;51.110;-4.158;2022-12-10T23:17:27;8.70;;;4.37;;
17648;SDS011;8943;51.110;-4.158;2022-12-10T23:20:08;6.70;;;4.60;;
17648;SDS011;8943;51.110;-4.158;2022-12-10T23:23:13;8.00;;;4.23;;
17648;SDS011;8943;51.110;-4.158;2022-12-10T23:38:25;5.30;;;2.43;;
17648;SDS011;8943;51.110;-4.158;2022-12-10T23:41:22;18.93;;;7.40;;
17648;SDS011;8943;51.110;-4.158;2022-12-10T23:44:18;26.30;;;10.70;;
17648;SDS011;8943;51.110;-4.158;2022-12-10T23:46:51;15.43;;;7.57;;
17648;SDS011;8943;51.110;-4.158;2022-12-10T23:49:38;17.90;;;6.67;;
17648;SDS011;8943;51.110;-4.158;2022-12-10T23:57:36;4.33;;;2.47;;
